Time;durP1;ratioP1;P1;durP2;ratioP2;P2;SDS_P1;SDS_P2;PMS_P1;PMS_P2;Temp;Humidity;BMP_temperature;BMP_pressure;BME280_temperature;BME280_humidity;BME280_pressure;Samples;Min_cycle;Max_cycle;Signal;HPM_P1;HPM_P2
2022/05/08 00:00:53;;;;;;;7.55;5.20;;;17.10;81.50;;;;;;4936961;29;20027;-69
2022/05/08 00:03:19;;;;;;;7.68;4.32;;;17.10;81.50;;;;;;4936395;29;20132;-69
2022/05/08 00:05:44;;;;;;;5.60;4.50;;;17.00;81.70;;;;;;4937065;29;20027;-69
2022/05/08 00:08:10;;;;;;;6.68;4.28;;;17.00;81.70;;;;;;4936798;29;20535;-69
2022/05/08 00:10:35;;;;;;;6.20;4.50;;;17.00;82.10;;;;;;4936975;29;20415;-69
2022/05/08 00:13:01;;;;;;;5.80;3.90;;;17.00;82.00;;;;;;4919823;29;20032;-70
2022/05/08 00:15:26;;;;;;;7.05;3.92;;;17.00;82.10;;;;;;4934253;29;20035;-70
2022/05/08 00:17:53;;;;;;;6.65;4.60;;;16.90;82.40;;;;;;4937005;29;20020;-70
2022/05/08 00:20:18;;;;;;;5.82;4.10;;;16.80;82.70;;;;;;4936370;29;20226;-70
2022/05/08 00:22:45;;;;;;;5.10;3.78;;;16.80;82.60;;;;;;4936701;29;20038;-70
2022/05/08 00:25:11;;;;;;;5.82;4.13;;;16.80;82.80;;;;;;4936083;29;20043;-69
2022/05/08 00:27:36;;;;;;;5.82;4.05;;;16.80;82.80;;;;;;4930188;29;20498;-69
2022/05/08 00:30:03;;;;;;;5.88;4.35;;;16.80;82.90;;;;;;4935501;29;20488;-70
2022/05/08 00:32:29;;;;;;;7.30;4.57;;;16.80;83.00;;;;;;4936922;29;20107;-70
2022/05/08 00:34:55;;;;;;;5.75;4.32;;;16.70;83.00;;;;;;4935806;29;20031;-70
2022/05/08 00:37:20;;;;;;;4.75;3.95;;;16.70;82.90;;;;;;4937025;29;20471;-70
2022/05/08 00:39:46;;;;;;;7.63;4.43;;;16.70;82.80;;;;;;4931785;29;20032;-70
2022/05/08 00:42:11;;;;;;;5.47;3.90;;;16.70;83.00;;;;;;4936615;29;20462;-69
2022/05/08 00:44:37;;;;;;;5.63;3.85;;;16.70;82.60;;;;;;4934255;29;20036;-69
2022/05/08 00:47:02;;;;;;;6.50;4.28;;;16.60;82.50;;;;;;4936682;29;20030;-69
2022/05/08 00:49:28;;;;;;;5.30;3.33;;;16.60;82.20;;;;;;4935611;29;20038;-70
2022/05/08 00:51:53;;;;;;;7.47;3.42;;;16.50;82.00;;;;;;4935304;29;20091;-69
2022/05/08 00:54:19;;;;;;;3.70;3.30;;;16.50;82.00;;;;;;4935174;29;20039;-68
2022/05/08 00:56:46;;;;;;;8.13;3.83;;;16.50;82.00;;;;;;4934217;29;20082;-69
2022/05/08 00:59:13;;;;;;;5.57;3.90;;;16.50;82.20;;;;;;4935093;29;20118;-69
2022/05/08 01:01:38;;;;;;;7.55;4.50;;;16.50;82.80;;;;;;4936104;29;20075;-68
2022/05/08 01:04:04;;;;;;;4.95;3.60;;;16.50;82.80;;;;;;4935395;29;20036;-68
2022/05/08 01:06:31;;;;;;;4.35;3.33;;;16.50;82.90;;;;;;4935930;29;20487;-68
2022/05/08 01:08:57;;;;;;;6.90;3.80;;;16.40;82.80;;;;;;4935049;29;20024;-68
2022/05/08 01:11:23;;;;;;;6.00;3.47;;;16.40;82.60;;;;;;4935750;29;20355;-69
2022/05/08 01:13:49;;;;;;;6.40;3.60;;;16.40;82.40;;;;;;4934282;29;20090;-68
2022/05/08 01:16:17;;;;;;;3.50;2.75;;;16.30;82.20;;;;;;4921629;29;20024;-69
2022/05/08 01:18:44;;;;;;;3.10;2.30;;;16.30;81.30;;;;;;4934892;29;20020;-69
2022/05/08 01:21:14;;;;;;;3.88;2.75;;;16.30;80.60;;;;;;4935739;29;20032;-69
2022/05/08 01:23:40;;;;;;;2.85;2.25;;;16.20;80.30;;;;;;4934309;29;20094;-68
2022/05/08 01:26:07;;;;;;;3.22;2.47;;;16.20;80.10;;;;;;4935514;29;20035;-68
2022/05/08 01:28:33;;;;;;;4.50;3.28;;;16.20;79.90;;;;;;4934872;29;20028;-68
2022/05/08 01:30:59;;;;;;;2.63;2.08;;;16.10;79.50;;;;;;4934614;29;20043;-69
2022/05/08 01:33:25;;;;;;;2.67;2.15;;;16.10;79.50;;;;;;4924079;29;20036;-70
2022/05/08 01:35:51;;;;;;;3.28;2.10;;;16.00;79.30;;;;;;4935306;29;20043;-69
2022/05/08 01:38:20;;;;;;;3.08;2.20;;;16.10;79.30;;;;;;4934354;29;20048;-69
2022/05/08 01:40:46;;;;;;;2.80;2.10;;;16.00;79.10;;;;;;4934626;29;20397;-69
2022/05/08 01:43:12;;;;;;;3.50;2.30;;;15.90;79.20;;;;;;4931846;29;20079;-68
2022/05/08 01:45:39;;;;;;;4.97;2.03;;;15.90;79.40;;;;;;4915270;29;20043;-68
2022/05/08 01:48:25;;;;;;;3.20;2.30;;;15.90;79.60;;;;;;4933851;29;20047;-68
2022/05/08 01:50:53;;;;;;;2.88;2.05;;;15.80;79.80;;;;;;4917507;29;20523;-67
2022/05/08 01:53:20;;;;;;;3.13;1.75;;;15.70;80.00;;;;;;4933975;29;20044;-69
2022/05/08 01:55:49;;;;;;;4.28;1.90;;;15.70;80.60;;;;;;4935096;29;20031;-69
2022/05/08 01:58:17;;;;;;;3.33;2.30;;;15.60;81.30;;;;;;4935673;29;20036;-68
2022/05/08 02:00:43;;;;;;;3.50;2.10;;;15.50;81.70;;;;;;4932993;29;20031;-68
2022/05/08 02:03:09;;;;;;;3.28;1.98;;;15.40;82.40;;;;;;4934485;29;20039;-68
2022/05/08 02:05:35;;;;;;;3.05;2.10;;;15.40;82.70;;;;;;4934097;29;20039;-68
2022/05/08 02:08:01;;;;;;;5.53;2.50;;;15.40;83.70;;;;;;4934258;29;20376;-68
2022/05/08 02:10:27;;;;;;;2.92;2.38;;;15.30;84.00;;;;;;4934952;29;20075;-68
2022/05/08 02:12:52;;;;;;;4.78;2.35;;;15.30;84.90;;;;;;4931381;29;20440;-68
2022/05/08 02:15:18;;;;;;;5.32;2.83;;;15.20;85.10;;;;;;4934783;29;20451;-68
2022/05/08 02:17:44;;;;;;;5.28;2.40;;;15.20;85.60;;;;;;4932966;29;20126;-68
2022/05/08 02:20:11;;;;;;;4.55;2.20;;;15.20;85.80;;;;;;4933452;29;20063;-68
2022/05/08 02:22:37;;;;;;;4.97;2.72;;;15.20;86.00;;;;;;4933352;29;20103;-68
2022/05/08 02:25:04;;;;;;;3.83;2.65;;;15.20;86.10;;;;;;4934471;29;20044;-68
2022/05/08 02:27:41;;;;;;;3.47;2.28;;;15.20;86.40;;;;;;4933393;29;20036;-68
2022/05/08 02:30:08;;;;;;;4.30;2.22;;;15.20;86.60;;;;;;4934085;29;20063;-69
2022/05/08 02:32:34;;;;;;;3.58;2.08;;;15.30;86.70;;;;;;4916655;29;20040;-68
2022/05/08 02:35:00;;;;;;;3.33;2.53;;;15.30;86.80;;;;;;4933020;29;20091;-69
2022/05/08 02:37:26;;;;;;;4.85;2.70;;;15.30;86.80;;;;;;4929873;29;21859;-68
2022/05/08 02:39:52;;;;;;;5.65;3.25;;;15.30;86.80;;;;;;4934133;29;20110;-68
2022/05/08 02:42:17;;;;;;;4.05;2.38;;;15.30;86.90;;;;;;4928905;29;20107;-69
2022/05/08 02:44:43;;;;;;;4.07;2.75;;;15.40;87.00;;;;;;4915670;29;20506;-68
2022/05/08 02:47:08;;;;;;;4.45;2.83;;;15.40;87.10;;;;;;4919084;29;20035;-68
2022/05/08 02:49:34;;;;;;;5.43;3.15;;;15.40;87.40;;;;;;4933740;29;20032;-69
2022/05/08 02:51:59;;;;;;;4.18;2.78;;;15.30;87.50;;;;;;4932996;29;20118;-69
2022/05/08 02:54:25;;;;;;;4.38;3.00;;;15.40;87.70;;;;;;4934507;29;20039;-69
2022/05/08 02:59:34;;;;;;;5.83;3.60;;;15.40;87.90;;;;;;4934672;29;20068;-69
2022/05/08 03:02:00;;;;;;;5.75;3.10;;;15.40;87.70;;;;;;4932758;29;20039;-69
2022/05/08 03:04:26;;;;;;;5.47;2.88;;;15.40;87.90;;;;;;4933924;29;20028;-68
2022/05/08 03:06:51;;;;;;;4.05;2.83;;;15.50;88.00;;;;;;4932347;29;20439;-69
2022/05/08 03:09:17;;;;;;;4.45;2.63;;;15.50;88.00;;;;;;4933880;29;20028;-69
2022/05/08 03:11:42;;;;;;;3.60;2.88;;;15.50;88.50;;;;;;4933035;29;20043;-68
2022/05/08 03:14:08;;;;;;;6.07;3.00;;;15.50;88.00;;;;;;4916699;29;20550;-69
2022/05/08 03:16:33;;;;;;;4.18;2.97;;;15.60;88.20;;;;;;4933823;29;20119;-68
2022/05/08 03:18:59;;;;;;;4.78;2.78;;;15.60;89.00;;;;;;4932879;29;20039;-69
2022/05/08 03:21:24;;;;;;;5.00;2.90;;;15.60;89.40;;;;;;4915637;29;20059;-69
2022/05/08 03:23:51;;;;;;;4.60;3.00;;;15.60;90.00;;;;;;4931141;29;20102;-69
2022/05/08 03:26:19;;;;;;;6.35;3.58;;;15.60;90.20;;;;;;4934368;29;20103;-68
2022/05/08 03:28:45;;;;;;;5.00;3.60;;;15.60;90.50;;;;;;4933165;29;20119;-69
2022/05/08 03:31:10;;;;;;;6.65;3.95;;;15.50;90.70;;;;;;4937806;29;20110;-69
2022/05/08 03:33:37;;;;;;;5.03;3.97;;;15.40;91.20;;;;;;4936612;29;20075;-70
2022/05/08 03:36:03;;;;;;;6.45;3.58;;;15.40;91.20;;;;;;4949844;29;20024;-71
2022/05/08 03:38:30;;;;;;;5.97;4.07;;;15.30;91.70;;;;;;4939415;29;20527;-71
2022/05/08 03:40:56;;;;;;;5.57;4.10;;;15.30;91.70;;;;;;4921376;29;20461;-71
2022/05/08 03:43:22;;;;;;;6.35;3.65;;;15.30;91.80;;;;;;4936377;29;20548;-72
2022/05/08 03:45:49;;;;;;;6.72;4.28;;;15.20;92.00;;;;;;4937332;29;20093;-72
2022/05/08 03:48:15;;;;;;;5.95;3.65;;;15.20;92.40;;;;;;4936610;29;20040;-71
2022/05/08 03:50:41;;;;;;;7.93;4.25;;;15.20;92.60;;;;;;4936989;29;20083;-72
2022/05/08 03:53:07;;;;;;;6.35;4.13;;;15.20;92.90;;;;;;4931085;29;20048;-71
2022/05/08 03:55:32;;;;;;;6.47;4.00;;;15.30;93.20;;;;;;4930173;29;20362;-71
2022/05/08 03:57:58;;;;;;;6.22;3.90;;;15.20;93.00;;;;;;4927488;29;20034;-71
2022/05/08 04:00:23;;;;;;;7.43;4.00;;;15.20;93.20;;;;;;4936970;29;20043;-71
2022/05/08 04:02:49;;;;;;;6.22;4.00;;;15.20;93.10;;;;;;4935383;29;20110;-71
2022/05/08 04:05:15;;;;;;;6.38;3.75;;;15.20;93.20;;;;;;4937124;29;20079;-72
2022/05/08 04:07:41;;;;;;;6.03;3.80;;;15.20;93.30;;;;;;4936137;29;20082;-71
2022/05/08 04:10:08;;;;;;;5.70;3.85;;;15.10;93.30;;;;;;4937027;29;20032;-71
2022/05/08 04:12:35;;;;;;;6.97;3.72;;;15.10;93.50;;;;;;4933312;29;20055;-69
2022/05/08 04:15:00;;;;;;;6.45;3.92;;;15.10;93.70;;;;;;4936280;29;20027;-70
2022/05/08 04:17:28;;;;;;;5.63;3.80;;;15.20;93.40;;;;;;4930045;29;20062;-72
2022/05/08 04:19:54;;;;;;;8.05;3.70;;;15.20;93.70;;;;;;4936811;29;20072;-72
2022/05/08 04:25:04;;;;;;;6.50;4.22;;;15.10;93.30;;;;;;4936590;29;20099;-71
2022/05/08 04:27:30;;;;;;;9.00;3.95;;;15.10;93.10;;;;;;4918619;29;20059;-72
2022/05/08 04:29:56;;;;;;;4.95;3.13;;;15.10;92.80;;;;;;4936857;29;20066;-72
2022/05/08 04:32:21;;;;;;;6.47;3.90;;;15.10;93.10;;;;;;4934878;29;20491;-72
2022/05/08 04:34:47;;;;;;;6.30;3.38;;;15.10;93.10;;;;;;4936631;29;20551;-72
2022/05/08 04:37:12;;;;;;;8.50;3.63;;;15.10;92.90;;;;;;4935594;29;20024;-70
2022/05/08 04:39:37;;;;;;;7.00;3.20;;;15.10;92.70;;;;;;4929909;29;20123;-70
2022/05/08 04:42:03;;;;;;;4.95;3.50;;;15.10;92.70;;;;;;4935342;29;20079;-70
2022/05/08 04:44:29;;;;;;;6.57;3.00;;;15.00;92.60;;;;;;4936216;29;20043;-70
2022/05/08 04:46:54;;;;;;;13.40;5.78;;;15.00;92.60;;;;;;4932603;29;20036;-70
2022/05/08 04:49:20;;;;;;;6.03;3.38;;;15.00;92.50;;;;;;4919824;29;20067;-70
2022/05/08 04:51:46;;;;;;;6.32;3.53;;;15.10;92.80;;;;;;4917692;29;20113;-70
2022/05/08 04:54:11;;;;;;;7.20;3.63;;;15.00;92.60;;;;;;4935728;29;20170;-70
2022/05/08 04:56:37;;;;;;;6.68;3.78;;;15.00;92.60;;;;;;4935331;29;20487;-70
2022/05/08 04:59:03;;;;;;;8.93;3.35;;;15.10;92.50;;;;;;4935090;29;20036;-70
2022/05/08 05:01:28;;;;;;;5.65;3.40;;;15.10;92.40;;;;;;4935207;29;20027;-70
2022/05/08 05:03:54;;;;;;;7.70;3.78;;;15.10;92.00;;;;;;4924246;29;20027;-70
2022/05/08 05:06:19;;;;;;;7.72;3.42;;;15.10;91.80;;;;;;4936120;29;20059;-70
2022/05/08 05:08:45;;;;;;;5.72;3.17;;;15.10;91.80;;;;;;4934897;29;20043;-71
2022/05/08 05:11:10;;;;;;;7.70;3.60;;;15.10;91.80;;;;;;4935588;29;20114;-71
2022/05/08 05:13:36;;;;;;;6.97;3.42;;;15.00;92.10;;;;;;4929239;29;20072;-71
2022/05/08 05:16:03;;;;;;;7.30;3.65;;;15.10;92.10;;;;;;4934800;29;20034;-71
2022/05/08 05:18:28;;;;;;;4.97;3.13;;;15.10;91.70;;;;;;4934652;29;20020;-78
2022/05/08 05:20:54;;;;;;;8.40;3.60;;;15.10;91.60;;;;;;4935754;29;20023;-74
2022/05/08 05:23:19;;;;;;;6.10;3.65;;;15.10;91.50;;;;;;4933650;29;20047;-79
2022/05/08 05:25:45;;;;;;;8.90;4.00;;;15.20;91.60;;;;;;4935219;29;20028;-77
2022/05/08 05:28:10;;;;;;;6.60;3.17;;;15.20;91.30;;;;;;4935209;29;20110;-75
2022/05/08 05:30:36;;;;;;;9.27;3.55;;;15.10;91.50;;;;;;4934413;29;20083;-75
2022/05/08 05:33:02;;;;;;;7.55;3.78;;;15.10;91.40;;;;;;4923111;29;20044;-67
2022/05/08 05:35:27;;;;;;;9.93;4.03;;;15.20;91.10;;;;;;4919507;29;20031;-68
2022/05/08 05:37:52;;;;;;;6.47;3.45;;;15.20;90.90;;;;;;4932665;29;20027;-68
2022/05/08 05:40:20;;;;;;;8.25;3.50;;;15.20;91.00;;;;;;4934963;29;20036;-68
2022/05/08 05:42:46;;;;;;;8.77;3.40;;;15.30;90.60;;;;;;4930869;29;20031;-69
2022/05/08 05:45:12;;;;;;;10.20;4.32;;;15.20;90.60;;;;;;4933789;29;20024;-69
2022/05/08 05:47:49;;;;;;;6.82;3.83;;;15.30;90.70;;;;;;4934651;29;20392;-69
2022/05/08 05:50:16;;;;;;;7.63;3.33;;;15.40;90.40;;;;;;4932782;29;20028;-68
2022/05/08 05:52:42;;;;;;;6.15;3.63;;;15.40;90.30;;;;;;4927034;29;20058;-68
2022/05/08 05:55:08;;;;;;;9.25;3.22;;;15.50;90.50;;;;;;4926643;29;20119;-66
2022/05/08 05:57:34;;;;;;;7.13;3.35;;;15.50;90.60;;;;;;4922648;29;20551;-66
2022/05/08 06:00:00;;;;;;;7.82;3.15;;;15.60;90.60;;;;;;4933710;29;20055;-65
2022/05/08 06:02:25;;;;;;;11.55;3.63;;;15.70;90.30;;;;;;4920890;29;20075;-67
2022/05/08 06:04:51;;;;;;;8.85;2.92;;;15.70;90.10;;;;;;4932583;29;20032;-66
2022/05/08 06:07:16;;;;;;;9.80;3.38;;;15.70;89.70;;;;;;4931777;29;20031;-66
2022/05/08 06:09:42;;;;;;;7.68;2.97;;;15.70;90.00;;;;;;4932879;29;20052;-66
2022/05/08 06:12:07;;;;;;;7.03;3.38;;;15.70;88.80;;;;;;4933020;29;20027;-66
2022/05/08 06:14:33;;;;;;;6.55;3.70;;;15.70;88.90;;;;;;4934370;29;20031;-67
2022/05/08 06:16:58;;;;;;;5.95;3.03;;;15.70;88.40;;;;;;4931982;29;20028;-67
2022/05/08 06:19:24;;;;;;;7.68;2.92;;;15.80;87.80;;;;;;4934004;29;20082;-67
2022/05/08 06:21:49;;;;;;;6.82;2.95;;;15.70;87.10;;;;;;4924662;29;20467;-67
2022/05/08 06:24:15;;;;;;;9.00;3.83;;;15.80;87.50;;;;;;4920461;29;20048;-67
2022/05/08 06:26:41;;;;;;;10.65;3.67;;;15.80;87.00;;;;;;4921297;29;20023;-66
2022/05/08 06:29:06;;;;;;;7.75;3.03;;;15.80;86.60;;;;;;4932748;29;20027;-66
2022/05/08 06:31:32;;;;;;;6.68;3.83;;;15.80;86.80;;;;;;4919806;29;20020;-66
2022/05/08 06:33:57;;;;;;;11.00;3.17;;;15.90;87.20;;;;;;4932506;29;20082;-67
2022/05/08 06:36:24;;;;;;;9.23;3.30;;;16.00;86.90;;;;;;4914519;29;20463;-67
2022/05/08 06:38:49;;;;;;;12.57;4.28;;;16.10;84.80;;;;;;4917084;29;20047;-66
2022/05/08 06:41:15;;;;;;;8.90;3.30;;;16.10;85.20;;;;;;4931852;29;20140;-67
2022/05/08 06:43:41;;;;;;;8.23;3.10;;;16.20;84.00;;;;;;4930525;29;20063;-65
2022/05/08 06:46:07;;;;;;;7.05;2.90;;;16.20;83.60;;;;;;4933353;29;20027;-65
2022/05/08 06:48:33;;;;;;;7.50;3.17;;;16.20;83.30;;;;;;4933469;29;20035;-66
2022/05/08 06:50:58;;;;;;;6.40;3.35;;;16.30;83.60;;;;;;4930485;29;20032;-66
2022/05/08 06:53:26;;;;;;;9.23;3.83;;;16.30;83.40;;;;;;4933435;29;20106;-66
2022/05/08 06:55:51;;;;;;;10.38;3.65;;;16.50;82.90;;;;;;4933763;29;20034;-66
2022/05/08 06:58:17;;;;;;;9.05;2.72;;;16.50;82.10;;;;;;4933119;29;20031;-66
2022/05/08 07:03:26;;;;;;;6.55;2.65;;;16.60;81.50;;;;;;4933509;29;20053;-66
2022/05/08 07:05:53;;;;;;;10.95;2.95;;;16.60;81.80;;;;;;4920608;29;20040;-66
2022/05/08 07:08:19;;;;;;;8.02;2.72;;;16.60;80.80;;;;;;4927006;29;20451;-66
2022/05/08 07:10:44;;;;;;;9.57;3.03;;;16.60;80.60;;;;;;4927441;29;20028;-67
2022/05/08 07:13:10;;;;;;;8.35;2.85;;;16.60;79.00;;;;;;4931940;29;20070;-66
2022/05/08 07:15:36;;;;;;;9.20;3.13;;;16.60;78.10;;;;;;4930231;29;20023;-66
2022/05/08 07:18:01;;;;;;;9.75;3.50;;;16.60;78.90;;;;;;4933331;29;20526;-66
2022/05/08 07:20:27;;;;;;;22.58;3.70;;;16.60;78.60;;;;;;4933378;29;20027;-66
2022/05/08 07:22:52;;;;;;;13.00;3.50;;;16.50;79.20;;;;;;4932225;29;20542;-66
2022/05/08 07:25:18;;;;;;;8.85;3.20;;;16.60;79.30;;;;;;4933449;29;20056;-65
2022/05/08 07:27:43;;;;;;;10.95;3.90;;;16.60;80.00;;;;;;4932524;29;20035;-66
2022/05/08 07:30:09;;;;;;;7.68;3.15;;;16.70;80.70;;;;;;4932753;29;20038;-66
2022/05/08 07:32:35;;;;;;;8.85;3.28;;;16.70;80.40;;;;;;4932255;29;20040;-65
2022/05/08 07:37:46;;;;;;;9.18;3.10;;;16.90;80.50;;;;;;4925690;29;20035;-65
2022/05/08 07:40:13;;;;;;;6.70;2.60;;;17.00;80.90;;;;;;4917033;29;20036;-66
2022/05/08 07:42:38;;;;;;;9.00;3.80;;;17.00;80.60;;;;;;4932362;29;20031;-66
2022/05/08 07:45:05;;;;;;;13.50;3.92;;;17.10;80.20;;;;;;4932070;29;20040;-65
2022/05/08 07:47:31;;;;;;;11.50;3.95;;;17.10;80.20;;;;;;4931989;29;20036;-65
2022/05/08 07:49:56;;;;;;;10.57;3.85;;;17.10;79.70;;;;;;4924070;29;20153;-65
2022/05/08 07:52:22;;;;;;;13.20;4.47;;;17.20;79.70;;;;;;4926058;29;20028;-65
2022/05/08 07:54:47;;;;;;;9.60;3.90;;;17.20;80.40;;;;;;4918650;29;20079;-65
2022/05/08 07:57:13;;;;;;;10.00;4.30;;;17.30;80.50;;;;;;4931881;29;20083;-65
2022/05/08 07:59:39;;;;;;;9.20;4.13;;;17.30;80.30;;;;;;4932944;29;20074;-65
2022/05/08 08:02:04;;;;;;;6.50;3.65;;;17.40;80.00;;;;;;4927448;29;20067;-65
2022/05/08 08:04:31;;;;;;;12.05;3.67;;;17.40;79.80;;;;;;4919277;29;20024;-65
2022/05/08 08:06:57;;;;;;;9.98;3.53;;;17.40;79.80;;;;;;4924594;29;20098;-66
2022/05/08 08:09:22;;;;;;;9.00;3.50;;;17.50;79.90;;;;;;4915634;29;20032;-66
2022/05/08 08:11:48;;;;;;;5.78;3.00;;;17.50;79.90;;;;;;4931592;29;20035;-65
2022/05/08 08:14:14;;;;;;;8.70;3.13;;;17.60;79.00;;;;;;4933468;29;20035;-66
2022/05/08 08:16:40;;;;;;;8.18;3.90;;;17.50;79.00;;;;;;4935440;29;20027;-65
2022/05/08 08:19:05;;;;;;;8.20;2.80;;;17.60;78.70;;;;;;4937017;29;20031;-66
2022/05/08 08:21:32;;;;;;;6.10;3.28;;;17.70;78.40;;;;;;4926681;29;20102;-66
2022/05/08 08:23:58;;;;;;;8.75;3.15;;;17.70;78.40;;;;;;4936012;29;20064;-66
2022/05/08 08:26:24;;;;;;;6.80;3.05;;;17.80;78.00;;;;;;4935809;29;20032;-66
2022/05/08 08:28:49;;;;;;;8.27;3.10;;;17.80;76.90;;;;;;4924162;29;20123;-65
2022/05/08 08:31:15;;;;;;;8.57;2.88;;;17.80;77.20;;;;;;4932425;29;20047;-65
2022/05/08 08:33:41;;;;;;;8.40;3.35;;;17.90;77.60;;;;;;4935466;29;20039;-65
2022/05/08 08:36:08;;;;;;;7.50;3.00;;;18.00;77.40;;;;;;4935854;29;20083;-66
2022/05/08 08:38:34;;;;;;;7.35;3.78;;;18.10;77.10;;;;;;4934718;29;20035;-65
2022/05/08 08:41:04;;;;;;;9.45;3.17;;;18.10;76.50;;;;;;4934915;29;20083;-65
2022/05/08 08:49:20;;;;;;;7.43;4.05;;;18.20;75.60;;;;;;4936218;29;20495;-65
2022/05/08 08:51:50;;;;;;;8.82;3.50;;;18.30;75.60;;;;;;4935205;29;20091;-65
2022/05/08 08:54:20;;;;;;;10.77;3.70;;;18.30;75.30;;;;;;4922363;29;20106;-65
2022/05/08 08:56:47;;;;;;;8.57;3.70;;;18.40;75.80;;;;;;4930142;29;20032;-64
2022/05/08 08:59:12;;;;;;;8.77;4.13;;;18.40;75.80;;;;;;4936410;29;20024;-65
2022/05/08 09:01:42;;;;;;;9.98;4.55;;;18.50;75.60;;;;;;4917259;29;20439;-65
2022/05/08 09:04:10;;;;;;;7.57;3.80;;;18.50;75.50;;;;;;4936263;29;20048;-65
2022/05/08 09:06:40;;;;;;;6.70;3.63;;;18.60;74.40;;;;;;4933866;29;20034;-65
2022/05/08 09:09:25;;;;;;;7.82;3.65;;;18.40;74.70;;;;;;4930632;29;20421;-66
2022/05/08 09:11:53;;;;;;;6.82;3.10;;;18.50;74.80;;;;;;4917970;29;20087;-66
2022/05/08 09:14:36;;;;;;;10.70;3.25;;;18.50;74.50;;;;;;4939951;29;20051;-65
2022/05/08 09:17:05;;;;;;;11.02;3.88;;;18.50;74.00;;;;;;4917925;29;20023;-66
2022/05/08 09:19:34;;;;;;;7.38;3.15;;;18.50;74.30;;;;;;4919995;29;20042;-66
2022/05/08 09:22:01;;;;;;;8.27;3.42;;;18.50;74.00;;;;;;4933314;29;20524;-66
2022/05/08 09:24:26;;;;;;;8.93;3.22;;;18.60;74.00;;;;;;4934050;29;20051;-66
2022/05/08 09:27:09;;;;;;;9.02;3.08;;;18.60;74.00;;;;;;4926372;29;20032;-66
2022/05/08 09:29:34;;;;;;;11.82;2.97;;;18.70;74.10;;;;;;4934591;29;20179;-66
2022/05/08 09:32:00;;;;;;;6.07;2.80;;;18.70;74.20;;;;;;4931642;29;20138;-66
2022/05/08 09:34:25;;;;;;;6.88;2.45;;;18.80;73.70;;;;;;4916743;29;20641;-66
2022/05/08 09:37:08;;;;;;;7.18;2.88;;;18.90;73.50;;;;;;4933380;29;20119;-66
2022/05/08 09:39:33;;;;;;;9.43;2.85;;;18.90;73.50;;;;;;4934753;29;20035;-67
2022/05/08 09:41:59;;;;;;;7.40;2.95;;;18.90;73.00;;;;;;4928385;29;20043;-65
2022/05/08 09:44:24;;;;;;;10.65;3.17;;;19.00;72.40;;;;;;4934152;29;20031;-65
2022/05/08 09:46:50;;;;;;;4.65;2.30;;;19.10;72.50;;;;;;4931574;29;20381;-66
2022/05/08 09:49:20;;;;;;;6.90;2.83;;;19.10;70.80;;;;;;4934165;29;20032;-64
2022/05/08 09:51:47;;;;;;;4.72;3.08;;;19.10;69.90;;;;;;4932179;29;20082;-66
2022/05/08 09:54:17;;;;;;;7.97;2.72;;;19.20;69.50;;;;;;4920897;29;20470;-65
2022/05/08 09:56:44;;;;;;;5.20;2.30;;;19.30;68.70;;;;;;4931925;29;20032;-66
2022/05/08 09:59:10;;;;;;;4.72;2.05;;;19.30;68.50;;;;;;4930011;29;20039;-66
2022/05/08 10:01:37;;;;;;;7.70;2.60;;;19.30;68.40;;;;;;4929829;29;20023;-65
2022/05/08 10:04:03;;;;;;;6.55;2.45;;;19.40;68.30;;;;;;4929890;29;20079;-66
2022/05/08 10:06:32;;;;;;;5.28;2.67;;;19.40;67.50;;;;;;4920798;29;20027;-66
2022/05/08 10:13:53;;;;;;;7.90;2.70;;;19.50;66.20;;;;;;4933503;29;20095;-66
2022/05/08 10:14:30;;;;;;;8.55;2.47;;;19.50;65.00;;;;;;4934390;29;20043;-66
2022/05/08 10:17:09;;;;;;;4.13;2.03;;;19.50;64.30;;;;;;4932529;29;20031;-66
2022/05/08 10:19:45;;;;;;;5.88;1.92;;;19.60;64.10;;;;;;4932953;29;20043;-66
2022/05/08 10:22:13;;;;;;;5.50;2.47;;;19.60;63.00;;;;;;4928455;29;20034;-66
2022/05/08 10:24:43;;;;;;;5.25;2.30;;;19.60;62.40;;;;;;4934547;29;20111;-66
2022/05/08 10:27:20;;;;;;;6.50;2.65;;;19.60;62.70;;;;;;4932570;29;20043;-67
2022/05/08 10:29:49;;;;;;;8.38;2.53;;;19.70;61.90;;;;;;4932776;29;20106;-67
2022/05/08 10:32:32;;;;;;;3.42;1.80;;;19.60;61.60;;;;;;4932433;29;20070;-66
2022/05/08 10:35:14;;;;;;;7.43;2.47;;;19.70;61.30;;;;;;4931916;29;20040;-66
2022/05/08 10:37:46;;;;;;;5.38;1.92;;;19.70;61.30;;;;;;4925363;29;20039;-66
2022/05/08 10:40:24;;;;;;;7.93;2.30;;;19.70;61.20;;;;;;4928636;29;20032;-64
2022/05/08 10:42:55;;;;;;;7.03;2.60;;;19.70;60.90;;;;;;4932127;29;20031;-66
2022/05/08 10:45:32;;;;;;;7.15;2.40;;;19.70;59.60;;;;;;4923866;29;20095;-65
2022/05/08 10:48:18;;;;;;;8.30;2.70;;;19.70;59.10;;;;;;4933103;29;20024;-66
2022/05/08 10:50:47;;;;;;;5.25;2.30;;;19.70;59.80;;;;;;4925286;29;20043;-67
2022/05/08 10:53:32;;;;;;;8.30;2.30;;;19.70;60.20;;;;;;4929239;29;20070;-67
2022/05/08 10:56:11;;;;;;;6.15;2.70;;;19.80;59.40;;;;;;4926202;29;20106;-66
2022/05/08 10:58:49;;;;;;;5.75;2.42;;;19.70;59.20;;;;;;4932242;29;20475;-65
2022/05/08 11:01:15;;;;;;;8.68;2.60;;;19.80;59.80;;;;;;4926583;29;20063;-66
2022/05/08 11:03:40;;;;;;;6.97;2.00;;;19.80;59.00;;;;;;4927455;29;20107;-65
2022/05/08 11:06:06;;;;;;;7.85;2.13;;;19.80;58.00;;;;;;4932456;29;20023;-66
2022/05/08 11:08:34;;;;;;;7.95;2.30;;;19.80;56.70;;;;;;4932322;29;20043;-64
2022/05/08 11:11:08;;;;;;;7.15;2.28;;;19.80;57.10;;;;;;4931208;29;20035;-66
2022/05/08 11:13:46;;;;;;;5.28;2.30;;;19.80;57.00;;;;;;4929126;29;20479;-66
2022/05/08 11:16:36;;;;;;;4.68;2.00;;;19.80;56.10;;;;;;4932656;29;20094;-66
2022/05/08 11:19:03;;;;;;;6.28;1.85;;;19.90;56.10;;;;;;4932726;29;20058;-66
2022/05/08 11:21:29;;;;;;;5.88;2.13;;;19.90;55.80;;;;;;4929644;29;20042;-66
2022/05/08 11:23:55;;;;;;;4.80;2.05;;;19.90;55.40;;;;;;4931906;29;20055;-67
2022/05/08 11:26:28;;;;;;;6.20;2.33;;;19.90;55.70;;;;;;4933273;29;20361;-66
2022/05/08 11:28:55;;;;;;;7.00;2.05;;;20.00;54.90;;;;;;4916080;29;20119;-67
2022/05/08 11:31:23;;;;;;;6.15;2.20;;;20.00;54.90;;;;;;4931795;29;20024;-69
2022/05/08 11:36:35;;;;;;;4.28;1.80;;;20.10;54.50;;;;;;4932475;29;20110;-66
2022/05/08 11:39:09;;;;;;;4.32;2.05;;;20.10;53.30;;;;;;4920663;29;20036;-66
2022/05/08 11:41:41;;;;;;;6.45;2.20;;;20.10;53.60;;;;;;4923495;29;20032;-65
2022/05/08 11:44:13;;;;;;;5.90;2.30;;;20.10;54.10;;;;;;4933212;29;20047;-67
2022/05/08 11:46:44;;;;;;;5.90;2.60;;;20.10;54.10;;;;;;4915183;29;20044;-66
2022/05/08 11:49:25;;;;;;;6.13;2.28;;;20.20;53.10;;;;;;4923012;29;20791;-66
2022/05/08 11:51:52;;;;;;;4.18;2.00;;;20.20;53.00;;;;;;4928753;29;20036;-66
2022/05/08 11:54:27;;;;;;;5.43;2.17;;;20.20;53.00;;;;;;4935419;29;20550;-66
2022/05/08 11:57:13;;;;;;;5.60;2.35;;;20.20;52.90;;;;;;4920248;29;20043;-66
2022/05/08 11:59:39;;;;;;;5.22;2.00;;;20.30;52.90;;;;;;4937272;29;20043;-66
2022/05/08 12:02:04;;;;;;;5.53;1.90;;;20.30;52.70;;;;;;4934350;29;20028;-66
2022/05/08 12:04:33;;;;;;;7.35;2.10;;;20.30;51.90;;;;;;4936867;29;20398;-67
2022/05/08 12:07:12;;;;;;;3.50;1.70;;;20.40;51.20;;;;;;4934982;29;20412;-66
2022/05/08 12:09:49;;;;;;;3.90;1.95;;;20.40;51.80;;;;;;4936877;29;20030;-66
2022/05/08 12:12:30;;;;;;;5.05;1.80;;;20.50;52.20;;;;;;4929256;29;20031;-66
2022/05/08 12:15:22;;;;;;;4.28;2.58;;;20.40;49.40;;;;;;4934686;29;20031;-66
2022/05/08 12:17:49;;;;;;;6.55;2.97;;;20.50;50.90;;;;;;4923187;29;20089;-66
2022/05/08 12:20:28;;;;;;;5.97;2.35;;;20.50;50.70;;;;;;4936170;29;20039;-66
2022/05/08 12:23:03;;;;;;;4.03;1.85;;;20.50;50.60;;;;;;4935305;29;20091;-66
2022/05/08 12:25:30;;;;;;;6.60;2.60;;;20.60;50.90;;;;;;4935506;29;20031;-66
2022/05/08 12:27:56;;;;;;;5.13;2.13;;;20.60;51.10;;;;;;4934643;29;20060;-66
2022/05/08 12:30:21;;;;;;;8.40;3.08;;;20.70;51.30;;;;;;4936478;29;20509;-66
2022/05/08 12:32:47;;;;;;;5.20;2.00;;;20.80;50.00;;;;;;4933860;29;20044;-66
2022/05/08 12:35:13;;;;;;;4.40;2.30;;;20.80;50.20;;;;;;4935707;29;20494;-66
2022/05/08 12:37:38;;;;;;;6.47;2.28;;;20.90;49.60;;;;;;4934519;29;20028;-66
2022/05/08 12:40:08;;;;;;;5.00;2.13;;;20.90;49.00;;;;;;4936405;29;20137;-66
2022/05/08 12:42:34;;;;;;;6.50;2.30;;;21.00;48.70;;;;;;4934993;29;20492;-66
2022/05/08 12:44:59;;;;;;;5.00;2.17;;;21.00;48.00;;;;;;4925228;29;20040;-66
2022/05/08 12:47:25;;;;;;;4.95;2.20;;;21.00;48.80;;;;;;4922711;29;20480;-66
2022/05/08 12:49:53;;;;;;;5.82;2.47;;;21.00;48.30;;;;;;4935314;29;20043;-67
2022/05/08 12:52:19;;;;;;;7.22;2.10;;;21.00;48.30;;;;;;4934372;29;20028;-66
2022/05/08 12:54:45;;;;;;;6.07;2.30;;;21.10;47.00;;;;;;4935397;29;20054;-67
2022/05/08 12:57:11;;;;;;;5.90;2.70;;;21.10;47.10;;;;;;4934270;29;20428;-66
2022/05/08 12:59:47;;;;;;;4.25;2.15;;;21.10;47.20;;;;;;4934914;29;20031;-67
2022/05/08 13:02:18;;;;;;;5.72;2.03;;;21.10;46.80;;;;;;4932148;29;20031;-67
2022/05/08 13:04:45;;;;;;;4.03;1.80;;;21.20;46.50;;;;;;4934907;29;20046;-67
2022/05/08 13:07:10;;;;;;;4.38;2.08;;;21.20;45.60;;;;;;4932052;29;20084;-67
2022/05/08 13:09:37;;;;;;;5.28;2.50;;;21.10;45.70;;;;;;4921904;29;20020;-66